This is the latest recevied weather packets stored in our database for station/object F4ELU-13. If no packets are shown the sender has not sent any weather packets the latest 10 day(s).
| Time | Temp. | Humidity | Pressure | Rain* | Wind** | Luminosity | Snow |
|---|---|---|---|---|---|---|---|
| 1777986003 | 17.22° C | 78% | 1008.3 hPa | 0 mm | - | - | - |
| 1777985643 | 17.22° C | 77% | 1008.3 hPa | 0 mm | - | - | - |
| 1777985103 | 17.78° C | 79% | 1008.2 hPa | 0 mm | - | - | - |
| 1777984563 | 17.78° C | 76% | 1008.1 hPa | 0 mm | - | - | - |
| 1777984023 | 18.33° C | 75% | 1007.9 hPa | 0 mm | - | - | - |
| 1777983483 | 18.33° C | 76% | 1008 hPa | 0 mm | - | - | - |
| 1777982943 | 18.33° C | 79% | 1008.2 hPa | 0 mm | - | - | - |
| 1777982403 | 17.22° C | 80% | 1008.1 hPa | 0 mm | - | - | - |
| 1777982043 | 16.67° C | 82% | 1008.3 hPa | 0 mm | - | - | - |
| 1777981503 | 16.67° C | 85% | 1008.3 hPa | 0 mm | - | - | - |
| 1777980963 | 15.56° C | 87% | 1008.5 hPa | 0 mm | - | - | - |
| 1777980425 | 16.11° C | 87% | 1008.4 hPa | 0.25 mm | - | - | - |
| 1777980423 | 16.11° C | 87% | 1008.4 hPa | 0.25 mm | - | - | - |
| 1777979883 | 16.67° C | 89% | 1008.5 hPa | 0.25 mm | - | - | - |
| 1777979343 | 15.56° C | 90% | 1008.5 hPa | 0.25 mm | - | - | - |
| 1777978803 | 15° C | 91% | 1008.6 hPa | 0.25 mm | - | - | - |
| 1777978443 | 14.44° C | 91% | 1008.6 hPa | 0.25 mm | - | - | - |
| 1777977903 | 13.89° C | 94% | 1008.6 hPa | 0.25 mm | - | - | - |
| 1777977363 | 13.33° C | 97% | 1008.7 hPa | 0.25 mm | - | - | - |
| 1777976823 | 13.89° C | 95% | 1008.7 hPa | 0 mm | - | - | - |
| 1777976283 | 15° C | 92% | 1008.6 hPa | 0 mm | - | - | - |
| 1777975743 | 14.44° C | 92% | 1008.6 hPa | 0 mm | - | - | - |
| 1777975203 | 13.89° C | 94% | 1008.5 hPa | 0 mm | - | - | - |
| 1777974844 | 13.89° C | 95% | 1008.6 hPa | 0 mm | - | - | - |
| 1777974303 | 14.44° C | 95% | 1008.4 hPa | 0 mm | - | - | - |
* Rain latest hour (hover to see other rain measurements)
** Current wind speed in m/s (hover to see current wind gust speed)